Time;durP1;ratioP1;P1;durP2;ratioP2;P2;SDS_P1;SDS_P2;PMS_P1;PMS_P2;Temp;Humidity;BMP_temperature;BMP_pressure;BME280_temperature;BME280_humidity;BME280_pressure;Samples;Min_cycle;Max_cycle;Signal;HPM_P1;HPM_P2
2023/10/16 00:02:23;;;;;;;3.83;3.17;;;;;;;;;;5025759;28;20297;-80
2023/10/16 00:04:50;;;;;;;7.20;4.00;;;;;;;;;;4999519;28;20183;-80
2023/10/16 00:07:27;;;;;;;5.07;3.80;;;;;;;;;;5023775;28;20264;-81
2023/10/16 00:09:54;;;;;;;4.70;3.30;;;;;;;;;;5028612;28;20515;-81
2023/10/16 00:12:20;;;;;;;4.53;3.43;;;;;;;;;;5007775;28;20210;-81
2023/10/16 00:14:46;;;;;;;5.77;3.50;;;;;;;;;;5015674;28;20221;-80
2023/10/16 00:17:14;;;;;;;4.27;3.27;;;;;;;;;;4995125;28;20187;-81
2023/10/16 00:19:44;;;;;;;4.43;3.00;;;;;;;;;;5006191;28;20194;-80
2023/10/16 00:22:16;;;;;;;4.43;3.20;;;;;;;;;;4993556;28;20225;-81
2023/10/16 00:24:46;;;;;;;4.53;3.50;;;;;;;;;;4994675;28;20187;-80
2023/10/16 00:27:14;;;;;;;5.77;3.17;;;;;;;;;;4995668;28;20207;-81
2023/10/16 00:29:43;;;;;;;4.70;3.30;;;;;;;;;;4993555;28;20252;-80
2023/10/16 00:32:11;;;;;;;5.13;3.30;;;;;;;;;;5020944;28;20210;-80
2023/10/16 00:34:38;;;;;;;4.47;3.40;;;;;;;;;;5007867;28;20226;-81
2023/10/16 00:37:04;;;;;;;6.13;3.33;;;;;;;;;;5033358;28;20300;-79
2023/10/16 00:39:36;;;;;;;4.37;3.07;;;;;;;;;;5013701;28;20213;-80
2023/10/16 00:42:08;;;;;;;3.53;3.20;;;;;;;;;;5015486;28;20206;-80
2023/10/16 00:44:34;;;;;;;4.93;3.40;;;;;;;;;;5012809;28;20861;-80
2023/10/16 00:47:04;;;;;;;4.47;3.10;;;;;;;;;;5000639;28;20651;-80
2023/10/16 00:49:34;;;;;;;4.17;3.20;;;;;;;;;;5011547;28;20202;-80
2023/10/16 00:52:03;;;;;;;6.03;3.97;;;;;;;;;;5028568;28;20829;-80
2023/10/16 00:54:31;;;;;;;6.47;3.33;;;;;;;;;;5005233;28;20262;-80
2023/10/16 00:56:58;;;;;;;3.97;3.03;;;;;;;;;;5011143;28;20666;-80
2023/10/16 00:59:24;;;;;;;5.87;3.17;;;;;;;;;;5012714;28;20268;-81
2023/10/16 01:04:32;;;;;;;4.43;3.10;;;;;;;;;;5021950;28;20222;-80
2023/10/16 01:07:00;;;;;;;4.70;3.23;;;;;;;;;;5014448;28;20203;-80
2023/10/16 01:09:33;;;;;;;3.67;3.17;;;;;;;;;;5004255;28;20746;-80
2023/10/16 01:12:00;;;;;;;4.83;3.50;;;;;;;;;;5031734;28;20226;-80
2023/10/16 01:14:26;;;;;;;4.50;3.40;;;;;;;;;;5013173;28;20534;-80
2023/10/16 01:16:54;;;;;;;5.33;2.80;;;;;;;;;;5034969;28;20213;-80
2023/10/16 01:19:20;;;;;;;3.00;2.30;;;;;;;;;;5031744;28;20265;-81
2023/10/16 01:21:47;;;;;;;2.93;1.80;;;;;;;;;;5014383;28;20575;-80
2023/10/16 01:24:13;;;;;;;3.70;1.70;;;;;;;;;;5015635;28;20202;-80
2023/10/16 01:26:42;;;;;;;5.50;1.70;;;;;;;;;;5008548;28;20268;-81
2023/10/16 01:29:09;;;;;;;3.43;2.00;;;;;;;;;;4976288;28;20586;-80
2023/10/16 01:31:36;;;;;;;3.07;1.90;;;;;;;;;;5031489;28;20212;-80
2023/10/16 01:34:10;;;;;;;2.90;1.80;;;;;;;;;;4999021;28;20557;-80
2023/10/16 01:36:37;;;;;;;4.07;1.83;;;;;;;;;;5013646;28;20185;-80
2023/10/16 01:39:08;;;;;;;3.97;2.40;;;;;;;;;;5032832;28;20188;-80
2023/10/16 01:41:34;;;;;;;5.07;1.80;;;;;;;;;;5013397;28;20245;-81
2023/10/16 01:44:09;;;;;;;3.50;1.70;;;;;;;;;;5028909;28;20273;-80
2023/10/16 01:46:35;;;;;;;3.30;1.93;;;;;;;;;;5030394;28;20206;-80
2023/10/16 01:49:04;;;;;;;6.23;2.10;;;;;;;;;;5032959;28;20650;-80
2023/10/16 01:51:31;;;;;;;3.80;2.27;;;;;;;;;;5029676;28;20210;-81
2023/10/16 01:53:57;;;;;;;5.50;2.47;;;;;;;;;;5010002;28;20175;-81
2023/10/16 01:56:23;;;;;;;5.13;3.07;;;;;;;;;;5006188;28;20183;-81
2023/10/16 01:58:52;;;;;;;4.43;2.87;;;;;;;;;;5005727;28;20415;-80
2023/10/16 02:01:18;;;;;;;8.30;3.10;;;;;;;;;;5008015;28;20258;-80
2023/10/16 02:03:46;;;;;;;4.17;2.80;;;;;;;;;;5024004;28;20602;-80
2023/10/16 02:06:12;;;;;;;5.63;3.00;;;;;;;;;;5030785;28;20229;-80
2023/10/16 02:08:39;;;;;;;3.87;3.03;;;;;;;;;;5007486;28;20430;-79
2023/10/16 02:11:06;;;;;;;4.00;2.87;;;;;;;;;;5006133;28;20232;-79
2023/10/16 02:13:35;;;;;;;3.70;3.00;;;;;;;;;;5007144;28;20199;-80
2023/10/16 02:16:02;;;;;;;4.30;3.00;;;;;;;;;;5012301;28;20178;-80
2023/10/16 02:18:36;;;;;;;5.60;3.47;;;;;;;;;;5012286;28;20221;-80
2023/10/16 02:21:02;;;;;;;4.07;2.87;;;;;;;;;;4980944;28;20183;-80
2023/10/16 02:23:31;;;;;;;4.13;3.00;;;;;;;;;;5002054;28;20207;-80
2023/10/16 02:26:01;;;;;;;4.67;3.20;;;;;;;;;;4995980;28;20191;-80
2023/10/16 02:28:31;;;;;;;4.23;3.30;;;;;;;;;;4994032;28;20249;-80
2023/10/16 02:31:05;;;;;;;3.67;3.10;;;;;;;;;;5011918;28;20255;-80
2023/10/16 02:33:35;;;;;;;4.10;3.00;;;;;;;;;;5010236;28;20506;-80
2023/10/16 02:36:02;;;;;;;4.47;3.17;;;;;;;;;;5030525;28;20198;-80
2023/10/16 02:38:28;;;;;;;4.07;3.40;;;;;;;;;;5027450;28;20182;-80
2023/10/16 02:41:00;;;;;;;5.13;3.20;;;;;;;;;;5022516;28;20186;-80
2023/10/16 02:43:27;;;;;;;5.43;3.40;;;;;;;;;;5011070;28;20581;-80
2023/10/16 02:45:54;;;;;;;3.60;3.00;;;;;;;;;;5003617;28;20205;-80
2023/10/16 02:48:21;;;;;;;3.97;3.37;;;;;;;;;;5009345;28;20206;-81
2023/10/16 02:50:54;;;;;;;3.87;3.10;;;;;;;;;;4994989;28;20210;-80
2023/10/16 02:53:24;;;;;;;7.47;3.63;;;;;;;;;;5019522;28;20570;-80
2023/10/16 02:56:04;;;;;;;3.90;3.00;;;;;;;;;;5011031;28;20195;-80
2023/10/16 02:58:31;;;;;;;3.87;3.10;;;;;;;;;;5009493;28;20187;-80
2023/10/16 03:00:58;;;;;;;4.67;3.27;;;;;;;;;;5028552;28;20677;-80
2023/10/16 03:03:26;;;;;;;5.77;3.50;;;;;;;;;;5009041;28;20289;-81
2023/10/16 03:05:56;;;;;;;3.77;2.97;;;;;;;;;;5028170;28;20190;-80
2023/10/16 03:08:32;;;;;;;4.23;2.97;;;;;;;;;;5010828;28;20516;-80
2023/10/16 03:11:05;;;;;;;5.97;3.40;;;;;;;;;;4990515;28;20198;-80
2023/10/16 03:13:39;;;;;;;5.03;3.20;;;;;;;;;;5009574;28;20698;-80
2023/10/16 03:16:07;;;;;;;3.87;3.10;;;;;;;;;;5003631;28;20209;-79
2023/10/16 03:18:34;;;;;;;4.50;3.10;;;;;;;;;;5025695;28;20636;-80
2023/10/16 03:21:45;;;;;;;4.20;2.80;;;;;;;;;;5009428;28;20626;-80
2023/10/16 03:23:51;;;;;;;3.93;2.90;;;;;;;;;;4999630;28;20206;-80
2023/10/16 03:28:47;;;;;;;5.33;2.97;;;;;;;;;;5020066;28;20205;-81
2023/10/16 03:31:14;;;;;;;3.67;2.87;;;;;;;;;;5019638;28;20186;-81
2023/10/16 03:33:40;;;;;;;4.13;2.73;;;;;;;;;;5001335;28;20361;-81
2023/10/16 03:36:09;;;;;;;4.30;2.80;;;;;;;;;;5024813;28;20210;-81
2023/10/16 03:38:41;;;;;;;4.90;2.83;;;;;;;;;;5009837;28;20274;-80
2023/10/16 03:41:42;;;;;;;5.43;3.50;;;;;;;;;;5013108;28;20236;-80
2023/10/16 03:44:07;;;;;;;5.63;3.17;;;;;;;;;;5007027;28;20202;-80
2023/10/16 03:46:33;;;;;;;3.80;2.73;;;;;;;;;;5017966;28;20213;-81
2023/10/16 03:49:00;;;;;;;3.63;2.90;;;;;;;;;;5005197;28;20302;-80
2023/10/16 03:51:26;;;;;;;4.93;3.47;;;;;;;;;;5008219;28;20261;-80
2023/10/16 03:53:52;;;;;;;4.20;3.00;;;;;;;;;;5027592;28;20217;-80
2023/10/16 03:56:20;;;;;;;3.30;2.90;;;;;;;;;;5026473;28;20183;-80
2023/10/16 03:58:46;;;;;;;5.23;3.10;;;;;;;;;;5028344;28;20194;-80
2023/10/16 04:01:12;;;;;;;5.30;2.93;;;;;;;;;;5027450;28;20194;-81
2023/10/16 04:03:46;;;;;;;11.10;5.07;;;;;;;;;;4997917;28;20191;-80
2023/10/16 04:06:22;;;;;;;6.33;4.00;;;;;;;;;;5016876;28;20179;-80
2023/10/16 04:08:48;;;;;;;6.93;3.87;;;;;;;;;;5010243;28;20191;-80
2023/10/16 04:11:18;;;;;;;11.23;3.90;;;;;;;;;;5001363;28;20258;-80
2023/10/16 04:13:48;;;;;;;21.20;6.53;;;;;;;;;;4987719;28;20187;-81
2023/10/16 04:16:31;;;;;;;10.43;4.43;;;;;;;;;;5026866;28;20240;-80
2023/10/16 04:19:20;;;;;;;6.17;3.73;;;;;;;;;;5004419;28;20182;-80
2023/10/16 04:21:45;;;;;;;5.40;3.57;;;;;;;;;;5004325;28;20654;-80
2023/10/16 04:26:57;;;;;;;5.03;2.90;;;;;;;;;;5021984;28;20217;-80
2023/10/16 04:29:28;;;;;;;4.90;3.17;;;;;;;;;;5027886;28;20229;-81
2023/10/16 04:36:54;;;;;;;4.87;3.17;;;;;;;;;;5016269;28;20669;-80
2023/10/16 04:47:42;;;;;;;4.77;3.40;;;;;;;;;;5024370;28;20225;-80
2023/10/16 04:50:11;;;;;;;7.23;4.00;;;;;;;;;;5017462;28;20320;-80
2023/10/16 05:03:23;;;;;;;5.37;3.37;;;;;;;;;;5016961;28;20214;-83
2023/10/16 05:06:05;;;;;;;6.23;3.50;;;;;;;;;;4997825;28;20194;-82
2023/10/16 05:13:55;;;;;;;6.40;3.43;;;;;;;;;;4993402;28;20191;-86
2023/10/16 05:16:35;;;;;;;5.17;3.37;;;;;;;;;;5000015;28;20581;-86
2023/10/16 05:19:04;;;;;;;4.60;2.93;;;;;;;;;;5001155;28;20658;-86
2023/10/16 06:16:28;;;;;;;6.60;3.77;;;;;;;;;;5014359;28;20195;-84
2023/10/16 06:18:54;;;;;;;7.77;4.67;;;;;;;;;;4966893;28;20222;-83
2023/10/16 06:21:21;;;;;;;6.97;4.20;;;;;;;;;;4997991;28;20213;-84
2023/10/16 06:23:50;;;;;;;6.47;5.27;;;;;;;;;;4984068;28;20183;-83
2023/10/16 06:26:16;;;;;;;8.60;5.10;;;;;;;;;;4982354;28;20196;-83
2023/10/16 06:28:49;;;;;;;7.83;4.93;;;;;;;;;;4967869;28;20179;-83
2023/10/16 06:31:25;;;;;;;9.30;5.50;;;;;;;;;;5014735;28;20189;-83
2023/10/16 06:33:56;;;;;;;7.93;5.30;;;;;;;;;;4995371;28;20226;-83
2023/10/16 06:36:24;;;;;;;7.90;5.20;;;;;;;;;;4974995;28;20199;-83
2023/10/16 06:38:53;;;;;;;10.83;6.50;;;;;;;;;;4993474;28;20208;-83
2023/10/16 06:41:20;;;;;;;12.90;8.53;;;;;;;;;;4975022;28;20268;-83
2023/10/16 06:43:47;;;;;;;14.27;9.33;;;;;;;;;;4988707;28;20195;-84
2023/10/16 06:46:24;;;;;;;9.67;7.03;;;;;;;;;;5004007;28;20545;-83
2023/10/16 06:48:50;;;;;;;8.20;5.70;;;;;;;;;;4968711;28;20541;-84
2023/10/16 06:51:16;;;;;;;8.07;4.80;;;;;;;;;;5017661;28;20175;-83
2023/10/16 06:53:44;;;;;;;7.87;5.00;;;;;;;;;;4982146;28;20183;-83
2023/10/16 06:56:14;;;;;;;6.10;4.70;;;;;;;;;;4985430;28;20202;-83
2023/10/16 06:58:41;;;;;;;7.30;4.87;;;;;;;;;;5014484;28;20214;-83
2023/10/16 07:01:07;;;;;;;7.50;5.07;;;;;;;;;;5015585;28;20203;-83
2023/10/16 07:03:33;;;;;;;7.63;4.77;;;;;;;;;;4995803;28;20278;-84
2023/10/16 07:06:00;;;;;;;7.20;4.70;;;;;;;;;;4976362;28;20648;-83
2023/10/16 07:08:26;;;;;;;9.23;5.07;;;;;;;;;;5016168;28;20208;-84
2023/10/16 07:10:56;;;;;;;7.00;5.40;;;;;;;;;;5001641;28;20178;-83
2023/10/16 07:13:31;;;;;;;7.10;4.77;;;;;;;;;;4994944;28;20219;-85
2023/10/16 07:15:59;;;;;;;8.40;5.40;;;;;;;;;;5007172;28;20658;-82
2023/10/16 07:18:26;;;;;;;12.50;7.37;;;;;;;;;;4994951;28;20205;-84
2023/10/16 07:20:59;;;;;;;10.27;6.77;;;;;;;;;;5010006;28;20195;-83
2023/10/16 07:23:29;;;;;;;12.43;7.53;;;;;;;;;;4986047;28;20294;-84
2023/10/16 07:25:58;;;;;;;14.53;8.80;;;;;;;;;;5008530;28;20288;-83
2023/10/16 07:28:28;;;;;;;12.13;7.23;;;;;;;;;;4991884;28;20210;-83
2023/10/16 07:30:59;;;;;;;9.33;6.60;;;;;;;;;;4979725;28;20261;-83
2023/10/16 07:33:25;;;;;;;11.70;6.77;;;;;;;;;;4979634;28;20235;-84
2023/10/16 07:35:52;;;;;;;10.63;6.70;;;;;;;;;;4975526;28;20190;-83
2023/10/16 07:38:23;;;;;;;8.90;5.90;;;;;;;;;;5002317;28;20309;-83
2023/10/16 07:40:53;;;;;;;9.10;5.63;;;;;;;;;;4982868;28;20194;-84
2023/10/16 07:43:26;;;;;;;6.80;4.53;;;;;;;;;;4976150;28;20712;-84
2023/10/16 07:48:40;;;;;;;8.70;4.50;;;;;;;;;;4994333;28;20662;-83
2023/10/16 07:51:07;;;;;;;7.57;4.10;;;;;;;;;;4991933;28;20329;-84
2023/10/16 07:53:37;;;;;;;6.97;3.83;;;;;;;;;;5003392;28;20207;-84
2023/10/16 07:56:03;;;;;;;6.50;3.80;;;;;;;;;;5011709;28;20176;-84
2023/10/16 07:58:33;;;;;;;6.60;3.63;;;;;;;;;;4987496;28;20206;-84
2023/10/16 08:03:36;;;;;;;6.70;3.70;;;;;;;;;;4972760;28;20273;-84
2023/10/16 08:06:11;;;;;;;5.57;3.70;;;;;;;;;;4963193;28;20219;-84
2023/10/16 08:08:38;;;;;;;4.77;3.80;;;;;;;;;;4987457;28;20196;-85
2023/10/16 08:11:18;;;;;;;6.73;3.80;;;;;;;;;;4989134;28;20180;-85
2023/10/16 08:13:48;;;;;;;7.30;4.17;;;;;;;;;;4994823;28;20183;-86
2023/10/16 08:16:18;;;;;;;6.47;3.87;;;;;;;;;;4987269;28;20250;-83
2023/10/16 08:18:48;;;;;;;8.27;4.27;;;;;;;;;;4980609;28;20623;-83
2023/10/16 08:21:26;;;;;;;10.07;4.40;;;;;;;;;;4986510;28;20223;-83
2023/10/16 08:23:53;;;;;;;5.93;3.90;;;;;;;;;;4989389;28;20183;-83
2023/10/16 08:26:28;;;;;;;8.80;4.43;;;;;;;;;;4995717;28;20743;-83
2023/10/16 08:28:55;;;;;;;7.13;4.23;;;;;;;;;;4967747;28;20210;-83
2023/10/16 08:31:25;;;;;;;9.97;4.63;;;;;;;;;;4991380;28;20191;-83
2023/10/16 08:33:54;;;;;;;8.93;4.40;;;;;;;;;;4974231;28;20192;-83
2023/10/16 08:36:20;;;;;;;7.93;4.00;;;;;;;;;;4966410;28;20198;-83
2023/10/16 08:38:52;;;;;;;10.03;4.00;;;;;;;;;;4983128;28;20183;-83
2023/10/16 08:41:27;;;;;;;11.90;4.33;;;;;;;;;;4979310;28;20238;-83
2023/10/16 08:44:03;;;;;;;8.17;4.30;;;;;;;;;;4995711;28;20195;-83
2023/10/16 08:46:30;;;;;;;11.70;4.53;;;;;;;;;;4998184;28;20183;-83
2023/10/16 08:48:57;;;;;;;5.60;3.70;;;;;;;;;;4980937;28;20204;-83
2023/10/16 08:51:23;;;;;;;8.57;4.07;;;;;;;;;;4998593;28;20183;-83
2023/10/16 08:53:58;;;;;;;6.50;3.83;;;;;;;;;;5007967;28;20180;-83
2023/10/16 08:56:25;;;;;;;7.80;3.83;;;;;;;;;;4993877;28;20190;-83
2023/10/16 08:58:55;;;;;;;6.57;3.90;;;;;;;;;;4984671;28;20289;-83
2023/10/16 09:01:23;;;;;;;6.90;3.70;;;;;;;;;;4990816;28;20187;-83
2023/10/16 09:03:54;;;;;;;7.13;3.90;;;;;;;;;;5005368;28;20666;-83
2023/10/16 09:06:24;;;;;;;9.47;4.17;;;;;;;;;;4969185;28;20192;-84
2023/10/16 09:08:51;;;;;;;6.80;4.10;;;;;;;;;;4988447;28;20190;-83
2023/10/16 09:11:19;;;;;;;6.57;4.70;;;;;;;;;;4967476;28;20194;-84
2023/10/16 09:13:50;;;;;;;6.97;4.53;;;;;;;;;;4989710;28;20699;-84
2023/10/16 09:16:21;;;;;;;11.63;5.43;;;;;;;;;;5010945;28;20253;-84
2023/10/16 09:18:47;;;;;;;7.23;4.70;;;;;;;;;;4976645;28;20549;-84
2023/10/16 09:21:14;;;;;;;7.07;4.93;;;;;;;;;;5012704;28;20214;-84
2023/10/16 09:23:53;;;;;;;10.43;5.70;;;;;;;;;;4992371;28;20279;-84
2023/10/16 09:26:44;;;;;;;8.90;4.73;;;;;;;;;;5011683;28;20199;-86
2023/10/16 09:29:15;;;;;;;6.43;4.80;;;;;;;;;;4968193;28;20668;-85
2023/10/16 09:31:48;;;;;;;8.53;5.53;;;;;;;;;;4990062;28;20203;-85
2023/10/16 09:34:17;;;;;;;7.23;5.30;;;;;;;;;;4975160;28;20203;-85
2023/10/16 09:39:49;;;;;;;8.13;5.70;;;;;;;;;;5006703;28;20305;-85
2023/10/16 09:42:15;;;;;;;7.70;4.83;;;;;;;;;;4982297;28;20222;-85
2023/10/16 09:44:44;;;;;;;8.90;5.10;;;;;;;;;;4991334;28;20210;-85
2023/10/16 09:47:25;;;;;;;7.93;5.10;;;;;;;;;;4988093;28;20282;-85
2023/10/16 09:49:53;;;;;;;7.17;4.97;;;;;;;;;;4967680;28;20200;-86
2023/10/16 09:52:20;;;;;;;8.70;4.97;;;;;;;;;;4963490;28;20222;-85
2023/10/16 09:54:51;;;;;;;7.90;4.67;;;;;;;;;;4969799;28;20269;-85
2023/10/16 09:57:27;;;;;;;6.87;4.50;;;;;;;;;;4975677;28;20194;-85
2023/10/16 10:02:42;;;;;;;10.10;4.80;;;;;;;;;;5011557;28;20210;-85
2023/10/16 10:05:09;;;;;;;7.03;4.97;;;;;;;;;;4994122;28;20198;-85
2023/10/16 10:07:38;;;;;;;9.23;4.80;;;;;;;;;;4971447;28;20218;-85
2023/10/16 10:12:53;;;;;;;6.60;4.57;;;;;;;;;;5001975;28;20238;-83
2023/10/16 10:15:22;;;;;;;6.57;4.40;;;;;;;;;;4982912;28;20580;-83
2023/10/16 10:17:51;;;;;;;11.30;4.57;;;;;;;;;;4985858;28;20190;-83
2023/10/16 10:20:31;;;;;;;6.73;4.57;;;;;;;;;;4983669;28;20179;-83
2023/10/16 10:23:05;;;;;;;5.07;4.00;;;;;;;;;;4984175;28;20675;-83
2023/10/16 10:25:37;;;;;;;6.93;4.33;;;;;;;;;;4982006;28;20196;-83
2023/10/16 10:28:28;;;;;;;4.93;3.57;;;;;;;;;;4986477;28;20218;-83
2023/10/16 10:30:56;;;;;;;5.77;3.53;;;;;;;;;;4985708;28;20187;-83
2023/10/16 10:33:42;;;;;;;6.80;3.60;;;;;;;;;;5002559;28;20274;-83
2023/10/16 10:36:27;;;;;;;7.70;3.60;;;;;;;;;;5007409;28;20186;-83
2023/10/16 10:39:20;;;;;;;4.43;2.90;;;;;;;;;;4984110;28;20195;-83
2023/10/16 10:41:47;;;;;;;5.33;3.10;;;;;;;;;;4985584;28;20305;-83
2023/10/16 10:44:14;;;;;;;6.17;3.37;;;;;;;;;;4986165;28;20630;-83
2023/10/16 10:46:55;;;;;;;6.07;3.40;;;;;;;;;;5002168;28;20706;-83
2023/10/16 10:49:30;;;;;;;5.23;2.97;;;;;;;;;;5003960;28;20266;-83
2023/10/16 10:51:56;;;;;;;6.97;3.37;;;;;;;;;;4989490;28;20289;-83
2023/10/16 10:54:25;;;;;;;6.70;3.23;;;;;;;;;;4981939;28;20191;-83
2023/10/16 10:56:53;;;;;;;7.93;3.60;;;;;;;;;;4997338;28;20195;-84
2023/10/16 11:02:51;;;;;;;4.87;3.03;;;;;;;;;;4957301;28;20212;-87
2023/10/16 11:05:24;;;;;;;6.67;3.10;;;;;;;;;;4949268;28;20209;-81
2023/10/16 11:10:41;;;;;;;4.97;3.00;;;;;;;;;;5013252;28;20179;-82
2023/10/16 11:13:08;;;;;;;3.77;2.60;;;;;;;;;;5007043;28;20223;-87
2023/10/16 11:15:48;;;;;;;5.10;2.50;;;;;;;;;;5014132;28;20180;-85
2023/10/16 11:18:20;;;;;;;5.80;3.00;;;;;;;;;;4991083;28;20203;-85
2023/10/16 11:20:48;;;;;;;5.03;2.90;;;;;;;;;;4972059;28;20209;-83
2023/10/16 11:23:15;;;;;;;5.27;3.00;;;;;;;;;;5011710;28;20202;-83
2023/10/16 11:25:52;;;;;;;4.23;2.50;;;;;;;;;;5003733;28;20572;-83
2023/10/16 11:28:22;;;;;;;5.43;2.80;;;;;;;;;;4989614;28;20211;-83
2023/10/16 11:30:49;;;;;;;3.27;2.23;;;;;;;;;;5007324;28;20258;-83
2023/10/16 11:33:26;;;;;;;4.93;2.73;;;;;;;;;;4976907;28;20203;-83
2023/10/16 11:35:54;;;;;;;3.83;2.27;;;;;;;;;;5003711;28;20186;-83
2023/10/16 11:38:30;;;;;;;5.23;2.70;;;;;;;;;;4975017;28;20202;-83
2023/10/16 11:40:57;;;;;;;6.37;2.63;;;;;;;;;;4980051;28;20195;-84
2023/10/16 11:43:24;;;;;;;5.70;2.27;;;;;;;;;;4994759;28;20306;-83
2023/10/16 11:45:53;;;;;;;2.63;1.90;;;;;;;;;;4988090;28;20187;-83
2023/10/16 11:48:35;;;;;;;3.83;2.20;;;;;;;;;;5001697;28;20215;-83
2023/10/16 11:51:18;;;;;;;4.70;2.10;;;;;;;;;;5008270;28;20175;-83
2023/10/16 11:53:45;;;;;;;2.70;2.10;;;;;;;;;;4988703;28;20195;-83
2023/10/16 11:56:18;;;;;;;5.30;2.10;;;;;;;;;;5016001;28;20184;-84
2023/10/16 11:58:44;;;;;;;3.87;2.30;;;;;;;;;;4963749;28;20184;-84
2023/10/16 12:01:14;;;;;;;3.03;2.00;;;;;;;;;;4988077;28;20472;-84
2023/10/16 12:03:40;;;;;;;3.07;1.83;;;;;;;;;;4995266;28;20270;-84
2023/10/16 12:06:08;;;;;;;4.60;2.03;;;;;;;;;;4990192;28;20833;-84
2023/10/16 12:08:37;;;;;;;2.53;1.83;;;;;;;;;;4958842;28;20215;-82
2023/10/16 12:11:04;;;;;;;2.73;1.47;;;;;;;;;;4990278;28;20679;-83
2023/10/16 12:13:31;;;;;;;2.10;1.40;;;;;;;;;;4987884;28;20818;-86
2023/10/16 12:15:58;;;;;;;1.33;1.20;;;;;;;;;;4997875;28;20179;-83
2023/10/16 12:18:26;;;;;;;1.20;1.10;;;;;;;;;;4995481;28;20199;-83
2023/10/16 12:20:53;;;;;;;1.97;1.30;;;;;;;;;;5018224;28;20187;-84
2023/10/16 12:23:20;;;;;;;2.43;1.60;;;;;;;;;;5011233;28;20680;-84
2023/10/16 12:25:47;;;;;;;2.67;1.30;;;;;;;;;;5008396;28;20195;-84
2023/10/16 12:28:13;;;;;;;1.63;1.30;;;;;;;;;;5007476;28;20298;-84
2023/10/16 12:30:39;;;;;;;1.50;1.30;;;;;;;;;;5014710;28;20178;-84
2023/10/16 12:33:06;;;;;;;1.97;1.50;;;;;;;;;;4998905;28;20691;-83
2023/10/16 12:35:34;;;;;;;3.10;1.23;;;;;;;;;;5015053;28;20245;-84
2023/10/16 12:38:07;;;;;;;1.97;1.20;;;;;;;;;;4998222;28;20616;-83
2023/10/16 12:40:39;;;;;;;4.03;1.63;;;;;;;;;;4997164;28;20661;-84
2023/10/16 12:43:06;;;;;;;2.53;1.20;;;;;;;;;;4989406;28;20240;-84
2023/10/16 12:45:32;;;;;;;2.10;1.40;;;;;;;;;;5012465;28;20201;-84
2023/10/16 12:47:59;;;;;;;2.80;1.40;;;;;;;;;;4999065;28;20210;-84
2023/10/16 12:50:26;;;;;;;2.53;1.40;;;;;;;;;;5012674;28;20223;-84
2023/10/16 12:52:53;;;;;;;4.00;1.50;;;;;;;;;;5012174;28;20211;-82
2023/10/16 12:55:19;;;;;;;3.97;2.10;;;;;;;;;;5014189;28;20183;-80
2023/10/16 12:57:48;;;;;;;1.87;1.30;;;;;;;;;;4994139;28;20191;-80
2023/10/16 13:00:19;;;;;;;2.53;1.27;;;;;;;;;;5016369;28;20237;-79
2023/10/16 13:02:46;;;;;;;2.00;1.20;;;;;;;;;;5000524;28;20211;-81
2023/10/16 13:05:13;;;;;;;1.93;1.23;;;;;;;;;;5013693;28;20199;-79
2023/10/16 13:07:49;;;;;;;2.17;1.30;;;;;;;;;;4997846;28;20287;-79
2023/10/16 13:10:17;;;;;;;1.43;1.30;;;;;;;;;;5007846;28;20204;-80
2023/10/16 13:12:44;;;;;;;2.70;1.40;;;;;;;;;;5007311;28;20214;-80
2023/10/16 13:15:14;;;;;;;2.70;1.30;;;;;;;;;;5009332;28;20210;-79
2023/10/16 13:17:40;;;;;;;2.13;1.40;;;;;;;;;;5026050;28;20190;-80
2023/10/16 13:20:16;;;;;;;2.27;1.30;;;;;;;;;;4988442;28;20275;-79
2023/10/16 13:22:43;;;;;;;1.30;1.20;;;;;;;;;;4993931;28;20269;-80
2023/10/16 13:25:13;;;;;;;2.10;1.33;;;;;;;;;;5010446;28;20176;-80
2023/10/16 13:27:39;;;;;;;1.77;1.30;;;;;;;;;;4997115;28;20584;-79
2023/10/16 13:30:07;;;;;;;1.27;1.10;;;;;;;;;;5007218;28;20183;-80
2023/10/16 13:32:33;;;;;;;1.77;1.20;;;;;;;;;;5012941;28;20210;-80
2023/10/16 13:35:00;;;;;;;2.27;1.30;;;;;;;;;;5013970;28;20286;-79
2023/10/16 13:37:26;;;;;;;3.00;1.63;;;;;;;;;;4992206;28;20330;-79
2023/10/16 13:39:53;;;;;;;2.77;1.30;;;;;;;;;;5006769;28;20197;-80
2023/10/16 13:42:20;;;;;;;1.93;1.40;;;;;;;;;;4997914;28;20308;-80
2023/10/16 13:44:47;;;;;;;1.93;1.33;;;;;;;;;;5011878;28;20209;-79
2023/10/16 13:47:13;;;;;;;1.70;1.07;;;;;;;;;;4998294;28;20300;-79
2023/10/16 13:49:42;;;;;;;1.67;1.00;;;;;;;;;;4979430;28;20578;-80
2023/10/16 13:52:09;;;;;;;4.43;1.20;;;;;;;;;;4992385;28;20978;-80
2023/10/16 13:54:35;;;;;;;2.47;1.40;;;;;;;;;;5011485;28;20216;-80
2023/10/16 13:57:02;;;;;;;1.90;1.20;;;;;;;;;;4977871;28;20220;-80
2023/10/16 13:59:28;;;;;;;1.50;1.30;;;;;;;;;;4992314;28;20692;-80
2023/10/16 14:01:56;;;;;;;2.30;1.40;;;;;;;;;;5008597;28;20646;-80
2023/10/16 14:04:25;;;;;;;1.40;1.20;;;;;;;;;;4996335;28;20223;-80
2023/10/16 14:06:51;;;;;;;4.23;1.20;;;;;;;;;;5009145;28;20676;-80
2023/10/16 14:09:27;;;;;;;3.70;1.40;;;;;;;;;;4986282;28;20195;-80
2023/10/16 14:11:53;;;;;;;1.70;1.10;;;;;;;;;;5010484;28;20289;-80
2023/10/16 14:14:20;;;;;;;1.73;1.20;;;;;;;;;;4990460;28;20255;-80
2023/10/16 14:16:51;;;;;;;2.13;1.20;;;;;;;;;;4988734;28;20593;-80
2023/10/16 14:19:22;;;;;;;1.30;1.10;;;;;;;;;;5003959;28;20654;-80
2023/10/16 14:21:51;;;;;;;1.20;1.10;;;;;;;;;;4990657;28;20203;-80
2023/10/16 14:24:18;;;;;;;3.10;1.33;;;;;;;;;;5008731;28;20192;-80
2023/10/16 14:26:49;;;;;;;1.77;1.23;;;;;;;;;;5015015;28;20245;-80
2023/10/16 14:29:16;;;;;;;1.60;1.30;;;;;;;;;;5012680;28;20183;-80
2023/10/16 14:31:46;;;;;;;1.90;1.20;;;;;;;;;;4980559;28;20205;-80
2023/10/16 14:34:18;;;;;;;2.10;1.37;;;;;;;;;;5009263;28;20194;-80
2023/10/16 14:36:48;;;;;;;2.43;1.20;;;;;;;;;;5012978;28;20179;-80
2023/10/16 14:39:14;;;;;;;2.27;1.40;;;;;;;;;;5006852;28;20174;-79
2023/10/16 14:41:41;;;;;;;3.13;1.80;;;;;;;;;;5015209;28;20200;-80
2023/10/16 14:44:15;;;;;;;2.63;1.30;;;;;;;;;;4973807;28;20200;-80
2023/10/16 14:46:42;;;;;;;1.73;1.13;;;;;;;;;;5009482;28;20179;-80
2023/10/16 14:49:09;;;;;;;2.10;1.40;;;;;;;;;;4988040;28;20544;-80
2023/10/16 14:51:38;;;;;;;2.47;1.20;;;;;;;;;;5009425;28;20422;-80
2023/10/16 14:54:10;;;;;;;1.50;1.13;;;;;;;;;;4991301;28;20190;-80
2023/10/16 14:56:37;;;;;;;3.43;1.50;;;;;;;;;;4989944;28;20648;-80
2023/10/16 14:59:11;;;;;;;1.73;1.20;;;;;;;;;;5007684;28;20663;-80
2023/10/16 15:01:38;;;;;;;2.00;1.20;;;;;;;;;;4990891;28;20202;-80
2023/10/16 15:04:04;;;;;;;1.73;1.30;;;;;;;;;;5007410;28;20576;-80
2023/10/16 15:06:30;;;;;;;1.80;1.30;;;;;;;;;;4995839;28;20308;-80
2023/10/16 15:08:57;;;;;;;2.20;1.43;;;;;;;;;;4999718;28;20179;-80
2023/10/16 15:11:26;;;;;;;3.77;1.70;;;;;;;;;;5023200;28;20191;-79
2023/10/16 15:13:54;;;;;;;2.50;1.17;;;;;;;;;;4989443;28;20184;-79
2023/10/16 15:16:21;;;;;;;3.50;1.30;;;;;;;;;;4998525;28;20796;-80
2023/10/16 15:18:47;;;;;;;1.60;0.90;;;;;;;;;;5014460;28;20233;-80
2023/10/16 15:21:13;;;;;;;1.83;1.23;;;;;;;;;;5012641;28;20218;-79
2023/10/16 15:23:39;;;;;;;1.40;1.10;;;;;;;;;;5013545;28;20191;-82
2023/10/16 15:26:07;;;;;;;1.77;1.30;;;;;;;;;;5007247;28;20202;-81
2023/10/16 15:28:33;;;;;;;1.77;1.20;;;;;;;;;;4993858;28;20211;-81
2023/10/16 15:30:59;;;;;;;3.27;1.57;;;;;;;;;;4994119;28;20232;-79
2023/10/16 15:33:25;;;;;;;2.40;1.20;;;;;;;;;;4995562;28;20199;-80
2023/10/16 15:35:52;;;;;;;1.67;1.00;;;;;;;;;;4993083;28;20183;-80
2023/10/16 15:38:24;;;;;;;1.60;1.03;;;;;;;;;;5008965;28;20183;-79
2023/10/16 15:40:52;;;;;;;1.27;1.00;;;;;;;;;;4993621;28;20435;-77
2023/10/16 15:43:18;;;;;;;1.53;1.00;;;;;;;;;;5013703;28;20211;-80
2023/10/16 15:45:44;;;;;;;1.50;1.10;;;;;;;;;;4998946;28;20191;-81
2023/10/16 15:48:12;;;;;;;2.70;1.10;;;;;;;;;;5016581;28;20214;-80
2023/10/16 15:50:41;;;;;;;1.33;1.03;;;;;;;;;;5013430;28;20179;-79
2023/10/16 15:53:08;;;;;;;2.70;1.40;;;;;;;;;;5012514;28;20202;-79
2023/10/16 15:55:35;;;;;;;3.27;1.60;;;;;;;;;;5012706;28;20895;-80
2023/10/16 15:58:01;;;;;;;2.33;1.37;;;;;;;;;;5020641;28;20182;-78
2023/10/16 16:00:28;;;;;;;2.00;1.30;;;;;;;;;;5014058;28;20562;-78
2023/10/16 16:02:58;;;;;;;2.33;1.17;;;;;;;;;;5001671;28;20229;-78
2023/10/16 16:05:27;;;;;;;2.30;1.00;;;;;;;;;;4999030;28;20191;-78
2023/10/16 16:07:54;;;;;;;1.80;1.20;;;;;;;;;;5008215;28;20211;-79
2023/10/16 16:10:21;;;;;;;2.57;1.30;;;;;;;;;;4994993;28;20179;-78
2023/10/16 16:12:48;;;;;;;4.70;1.47;;;;;;;;;;5018739;28;20205;-77
2023/10/16 16:15:17;;;;;;;3.07;1.23;;;;;;;;;;5000367;28;20637;-77
2023/10/16 16:17:44;;;;;;;2.00;1.30;;;;;;;;;;5014514;28;20183;-77
2023/10/16 16:20:15;;;;;;;3.10;1.37;;;;;;;;;;4999209;28;20191;-78
2023/10/16 16:22:45;;;;;;;3.03;1.27;;;;;;;;;;5021652;28;20686;-78
2023/10/16 16:25:12;;;;;;;1.67;1.27;;;;;;;;;;5009000;28;20179;-77
2023/10/16 16:27:39;;;;;;;1.30;1.20;;;;;;;;;;5020950;28;20212;-77
2023/10/16 16:30:07;;;;;;;2.20;1.50;;;;;;;;;;5026280;28;20181;-77
2023/10/16 16:32:34;;;;;;;3.60;1.37;;;;;;;;;;5026953;28;20211;-77
2023/10/16 16:35:00;;;;;;;2.00;1.30;;;;;;;;;;5007132;28;20564;-77
2023/10/16 16:37:27;;;;;;;2.10;1.43;;;;;;;;;;5020650;28;20215;-77
2023/10/16 16:39:53;;;;;;;2.50;1.60;;;;;;;;;;5021897;28;20189;-77
2023/10/16 16:42:19;;;;;;;2.13;1.50;;;;;;;;;;5007489;28;20241;-77
2023/10/16 16:44:45;;;;;;;3.20;1.50;;;;;;;;;;5005465;28;20233;-77
2023/10/16 16:47:11;;;;;;;3.40;1.50;;;;;;;;;;5021733;28;20313;-78
2023/10/16 16:49:39;;;;;;;2.40;1.57;;;;;;;;;;5021602;28;20191;-77